Pagrindinis puslapis
METAR-TAF:

METAR-TAF

Oro uostai :

Rerusas, Norvegija

platuma: 62-35N, ilguma: 011-21E, Aukštis: 626 m

Dabartinis oras

Ataskaita buvo paskelbta 32 minutes, ne 02:20 UTC
Ramus vėjas
Temperatūra 1°C
Drėgmė 100%
Slėgis 1031 hPa
Matomumas 10 km arba daugiau

METAR: ENRO 290220Z AUTO 00000KT 9999NDV SCT090/// BKN110/// 01/01 Q1031

Laikas: 04:52 (02:52 UTC)

Prognozė

Ataskaita buvo paskelbta 52 minutes, ne 02:00 UTC
Prognozė galioja nuo 29 metu 03 UTC su 29 metu 12 UTC
Vėjas 5 kt nuo kintamojo kryptimis
Matomumas 10 km arba daugiau
nėra debesų žemiau 1500 m ir nėra kamuolinių lietaus debesų

TAF: ENRO 290200Z 2903/2912 VRB05KT CAVOK

Orai ataskaitas ir orų prognozės (METAR, TAF).

turimą stotys yra geltonos ir raudonos taškus žemėlapyje.

Perkelti pele per norėdami pamatyti stoties vardą.

Tada spustelėkite, norėdami matyti oro stebėjimo ir prognozės.

Norėdami pakeisti žemėlapį: spustelėkite ant žalios mygtukų su juodo kryžiaus žemyn,; žalią mygtuką su brūkšneliu, jei norite nutolinti; arba žalių rodyklių gretimoms žemėlapius.


METAR-TAF: